sensor_id;sensor_type;location;lat;lon;timestamp;P1;durP1;ratioP1;P2;durP2;ratioP2
4636;SDS011;2331;48.806;9.140;2023-08-20T00:02:00;12.17;;;6.93;;
4636;SDS011;2331;48.806;9.140;2023-08-20T00:04:28;8.87;;;7.40;;
4636;SDS011;2331;48.806;9.140;2023-08-20T00:07:00;13.80;;;7.53;;
4636;SDS011;2331;48.806;9.140;2023-08-20T00:09:27;12.07;;;7.20;;
4636;SDS011;2331;48.806;9.140;2023-08-20T00:11:55;12.47;;;7.90;;
4636;SDS011;2331;48.806;9.140;2023-08-20T00:14:51;9.47;;;6.90;;
4636;SDS011;2331;48.806;9.140;2023-08-20T00:17:20;9.80;;;7.10;;
4636;SDS011;2331;48.806;9.140;2023-08-20T00:19:49;13.97;;;7.80;;
4636;SDS011;2331;48.806;9.140;2023-08-20T00:22:17;12.83;;;7.63;;
4636;SDS011;2331;48.806;9.140;2023-08-20T00:24:44;15.97;;;8.10;;
4636;SDS011;2331;48.806;9.140;2023-08-20T00:27:11;10.50;;;7.80;;
4636;SDS011;2331;48.806;9.140;2023-08-20T00:29:39;12.47;;;7.83;;
4636;SDS011;2331;48.806;9.140;2023-08-20T00:32:06;10.33;;;7.40;;
4636;SDS011;2331;48.806;9.140;2023-08-20T00:34:33;12.10;;;7.50;;
4636;SDS011;2331;48.806;9.140;2023-08-20T00:37:00;11.43;;;7.40;;
4636;SDS011;2331;48.806;9.140;2023-08-20T00:39:27;12.13;;;7.10;;
4636;SDS011;2331;48.806;9.140;2023-08-20T00:41:54;14.00;;;7.70;;
4636;SDS011;2331;48.806;9.140;2023-08-20T00:44:21;11.00;;;7.50;;
4636;SDS011;2331;48.806;9.140;2023-08-20T00:46:49;17.60;;;7.43;;
4636;SDS011;2331;48.806;9.140;2023-08-20T00:49:16;9.47;;;7.43;;
4636;SDS011;2331;48.806;9.140;2023-08-20T00:51:43;10.10;;;8.00;;
4636;SDS011;2331;48.806;9.140;2023-08-20T00:54:11;13.83;;;7.50;;
4636;SDS011;2331;48.806;9.140;2023-08-20T00:56:38;12.03;;;7.47;;
4636;SDS011;2331;48.806;9.140;2023-08-20T00:59:05;16.47;;;8.10;;
4636;SDS011;2331;48.806;9.140;2023-08-20T01:01:32;9.97;;;7.03;;
4636;SDS011;2331;48.806;9.140;2023-08-20T01:04:00;13.27;;;7.60;;
4636;SDS011;2331;48.806;9.140;2023-08-20T01:09:14;11.27;;;6.90;;
4636;SDS011;2331;48.806;9.140;2023-08-20T01:11:49;13.10;;;7.47;;
4636;SDS011;2331;48.806;9.140;2023-08-20T01:14:22;15.87;;;8.10;;
4636;SDS011;2331;48.806;9.140;2023-08-20T01:16:48;11.50;;;8.23;;
4636;SDS011;2331;48.806;9.140;2023-08-20T01:19:18;13.13;;;7.93;;
4636;SDS011;2331;48.806;9.140;2023-08-20T01:21:47;12.73;;;7.60;;
4636;SDS011;2331;48.806;9.140;2023-08-20T01:24:37;12.37;;;7.80;;
4636;SDS011;2331;48.806;9.140;2023-08-20T01:27:16;12.43;;;8.00;;
4636;SDS011;2331;48.806;9.140;2023-08-20T01:29:54;10.87;;;7.57;;
4636;SDS011;2331;48.806;9.140;2023-08-20T01:32:21;12.03;;;7.07;;
4636;SDS011;2331;48.806;9.140;2023-08-20T01:34:50;11.03;;;8.20;;
4636;SDS011;2331;48.806;9.140;2023-08-20T01:37:18;11.30;;;7.80;;
4636;SDS011;2331;48.806;9.140;2023-08-20T01:39:44;11.43;;;7.93;;
4636;SDS011;2331;48.806;9.140;2023-08-20T01:42:11;15.37;;;7.73;;
4636;SDS011;2331;48.806;9.140;2023-08-20T01:44:38;13.87;;;8.60;;
4636;SDS011;2331;48.806;9.140;2023-08-20T01:47:06;16.57;;;7.77;;
4636;SDS011;2331;48.806;9.140;2023-08-20T01:49:33;14.90;;;7.77;;
4636;SDS011;2331;48.806;9.140;2023-08-20T01:51:59;16.27;;;7.87;;
4636;SDS011;2331;48.806;9.140;2023-08-20T01:54:26;12.30;;;7.97;;
4636;SDS011;2331;48.806;9.140;2023-08-20T01:56:53;11.40;;;7.70;;
4636;SDS011;2331;48.806;9.140;2023-08-20T01:59:21;13.10;;;8.30;;
4636;SDS011;2331;48.806;9.140;2023-08-20T02:01:48;11.53;;;8.17;;
4636;SDS011;2331;48.806;9.140;2023-08-20T02:04:16;12.03;;;8.50;;
4636;SDS011;2331;48.806;9.140;2023-08-20T02:06:42;13.33;;;7.83;;
4636;SDS011;2331;48.806;9.140;2023-08-20T02:09:09;12.17;;;7.73;;
4636;SDS011;2331;48.806;9.140;2023-08-20T02:11:36;13.50;;;8.13;;
4636;SDS011;2331;48.806;9.140;2023-08-20T02:14:03;10.87;;;7.53;;
4636;SDS011;2331;48.806;9.140;2023-08-20T02:16:29;10.93;;;7.20;;
4636;SDS011;2331;48.806;9.140;2023-08-20T02:18:56;11.10;;;7.73;;
4636;SDS011;2331;48.806;9.140;2023-08-20T02:21:24;11.60;;;7.70;;
4636;SDS011;2331;48.806;9.140;2023-08-20T02:23:51;10.93;;;6.90;;
4636;SDS011;2331;48.806;9.140;2023-08-20T02:26:18;10.70;;;7.53;;
4636;SDS011;2331;48.806;9.140;2023-08-20T02:28:44;14.17;;;8.77;;
4636;SDS011;2331;48.806;9.140;2023-08-20T02:31:11;14.77;;;8.77;;
4636;SDS011;2331;48.806;9.140;2023-08-20T02:33:38;10.33;;;7.40;;
4636;SDS011;2331;48.806;9.140;2023-08-20T02:36:04;13.30;;;8.30;;
4636;SDS011;2331;48.806;9.140;2023-08-20T02:38:33;9.67;;;7.17;;
4636;SDS011;2331;48.806;9.140;2023-08-20T02:41:00;11.73;;;7.70;;
4636;SDS011;2331;48.806;9.140;2023-08-20T02:43:27;9.80;;;7.10;;
4636;SDS011;2331;48.806;9.140;2023-08-20T02:45:54;11.10;;;8.00;;
4636;SDS011;2331;48.806;9.140;2023-08-20T02:48:21;11.10;;;7.70;;
4636;SDS011;2331;48.806;9.140;2023-08-20T02:50:51;11.77;;;7.80;;
4636;SDS011;2331;48.806;9.140;2023-08-20T02:53:18;9.67;;;6.97;;
4636;SDS011;2331;48.806;9.140;2023-08-20T02:55:46;12.90;;;8.30;;
4636;SDS011;2331;48.806;9.140;2023-08-20T02:58:13;10.60;;;7.40;;
4636;SDS011;2331;48.806;9.140;2023-08-20T03:00:40;10.33;;;7.60;;
4636;SDS011;2331;48.806;9.140;2023-08-20T03:03:07;11.77;;;8.33;;
4636;SDS011;2331;48.806;9.140;2023-08-20T03:05:34;13.00;;;8.40;;
4636;SDS011;2331;48.806;9.140;2023-08-20T03:08:01;10.00;;;7.63;;
4636;SDS011;2331;48.806;9.140;2023-08-20T03:10:29;11.70;;;7.90;;
4636;SDS011;2331;48.806;9.140;2023-08-20T03:12:58;14.53;;;8.20;;
4636;SDS011;2331;48.806;9.140;2023-08-20T03:15:25;10.43;;;7.77;;
4636;SDS011;2331;48.806;9.140;2023-08-20T03:17:52;11.00;;;8.10;;
4636;SDS011;2331;48.806;9.140;2023-08-20T03:20:19;11.50;;;8.27;;
4636;SDS011;2331;48.806;9.140;2023-08-20T03:22:46;10.73;;;7.30;;
4636;SDS011;2331;48.806;9.140;2023-08-20T03:25:12;14.00;;;8.17;;
4636;SDS011;2331;48.806;9.140;2023-08-20T03:27:39;12.50;;;8.03;;
4636;SDS011;2331;48.806;9.140;2023-08-20T03:30:08;14.60;;;7.90;;
4636;SDS011;2331;48.806;9.140;2023-08-20T03:32:35;13.50;;;8.50;;
4636;SDS011;2331;48.806;9.140;2023-08-20T03:35:02;14.53;;;7.43;;
4636;SDS011;2331;48.806;9.140;2023-08-20T03:37:29;10.90;;;8.10;;
4636;SDS011;2331;48.806;9.140;2023-08-20T03:39:55;12.80;;;8.27;;
4636;SDS011;2331;48.806;9.140;2023-08-20T03:42:22;10.30;;;7.80;;
4636;SDS011;2331;48.806;9.140;2023-08-20T03:44:49;15.63;;;8.27;;
4636;SDS011;2331;48.806;9.140;2023-08-20T03:47:17;11.03;;;7.93;;
4636;SDS011;2331;48.806;9.140;2023-08-20T03:49:45;11.10;;;8.40;;
4636;SDS011;2331;48.806;9.140;2023-08-20T03:52:12;14.17;;;8.73;;
4636;SDS011;2331;48.806;9.140;2023-08-20T03:54:39;11.70;;;7.90;;
4636;SDS011;2331;48.806;9.140;2023-08-20T03:57:06;11.47;;;8.20;;
4636;SDS011;2331;48.806;9.140;2023-08-20T03:59:33;10.57;;;7.63;;
4636;SDS011;2331;48.806;9.140;2023-08-20T04:01:59;14.47;;;8.60;;
4636;SDS011;2331;48.806;9.140;2023-08-20T04:04:27;12.50;;;7.40;;
4636;SDS011;2331;48.806;9.140;2023-08-20T04:06:54;11.80;;;8.00;;
4636;SDS011;2331;48.806;9.140;2023-08-20T04:09:21;10.90;;;8.63;;
4636;SDS011;2331;48.806;9.140;2023-08-20T04:11:47;12.23;;;8.00;;
4636;SDS011;2331;48.806;9.140;2023-08-20T04:14:14;14.50;;;8.60;;
4636;SDS011;2331;48.806;9.140;2023-08-20T04:16:41;13.47;;;8.87;;
4636;SDS011;2331;48.806;9.140;2023-08-20T04:19:08;10.43;;;7.60;;
4636;SDS011;2331;48.806;9.140;2023-08-20T04:21:36;12.23;;;8.77;;
4636;SDS011;2331;48.806;9.140;2023-08-20T04:24:03;13.00;;;7.80;;
4636;SDS011;2331;48.806;9.140;2023-08-20T04:26:30;11.73;;;8.37;;
4636;SDS011;2331;48.806;9.140;2023-08-20T04:28:57;13.30;;;8.60;;
4636;SDS011;2331;48.806;9.140;2023-08-20T04:31:24;12.00;;;7.73;;
4636;SDS011;2331;48.806;9.140;2023-08-20T04:33:50;10.47;;;8.30;;
4636;SDS011;2331;48.806;9.140;2023-08-20T04:36:17;11.90;;;8.23;;
4636;SDS011;2331;48.806;9.140;2023-08-20T04:38:45;10.97;;;8.03;;
4636;SDS011;2331;48.806;9.140;2023-08-20T04:41:12;13.30;;;8.67;;
4636;SDS011;2331;48.806;9.140;2023-08-20T04:43:38;10.60;;;8.00;;
4636;SDS011;2331;48.806;9.140;2023-08-20T04:46:05;10.63;;;7.40;;
4636;SDS011;2331;48.806;9.140;2023-08-20T04:48:33;14.73;;;8.30;;
4636;SDS011;2331;48.806;9.140;2023-08-20T04:50:59;13.63;;;8.60;;
4636;SDS011;2331;48.806;9.140;2023-08-20T04:53:26;13.43;;;8.03;;
4636;SDS011;2331;48.806;9.140;2023-08-20T04:55:54;12.20;;;9.07;;
4636;SDS011;2331;48.806;9.140;2023-08-20T04:58:23;13.90;;;8.43;;
4636;SDS011;2331;48.806;9.140;2023-08-20T05:00:49;10.80;;;7.93;;
4636;SDS011;2331;48.806;9.140;2023-08-20T05:03:16;13.97;;;8.03;;
4636;SDS011;2331;48.806;9.140;2023-08-20T05:05:47;13.00;;;7.53;;
4636;SDS011;2331;48.806;9.140;2023-08-20T05:08:14;9.60;;;7.73;;
4636;SDS011;2331;48.806;9.140;2023-08-20T05:10:41;12.43;;;8.60;;
4636;SDS011;2331;48.806;9.140;2023-08-20T05:13:09;12.50;;;8.13;;
4636;SDS011;2331;48.806;9.140;2023-08-20T05:15:36;12.43;;;8.80;;
4636;SDS011;2331;48.806;9.140;2023-08-20T05:18:03;12.97;;;7.97;;
4636;SDS011;2331;48.806;9.140;2023-08-20T05:20:30;13.13;;;9.20;;
4636;SDS011;2331;48.806;9.140;2023-08-20T05:22:56;14.13;;;8.57;;
4636;SDS011;2331;48.806;9.140;2023-08-20T05:25:23;13.13;;;9.83;;
4636;SDS011;2331;48.806;9.140;2023-08-20T05:27:50;13.20;;;8.37;;
4636;SDS011;2331;48.806;9.140;2023-08-20T05:30:18;13.97;;;9.80;;
4636;SDS011;2331;48.806;9.140;2023-08-20T05:32:45;11.10;;;8.90;;
4636;SDS011;2331;48.806;9.140;2023-08-20T05:35:11;13.43;;;9.27;;
4636;SDS011;2331;48.806;9.140;2023-08-20T05:37:38;14.00;;;9.40;;
4636;SDS011;2331;48.806;9.140;2023-08-20T05:40:05;11.17;;;8.80;;
4636;SDS011;2331;48.806;9.140;2023-08-20T05:42:34;11.30;;;9.20;;
4636;SDS011;2331;48.806;9.140;2023-08-20T05:45:00;20.13;;;10.40;;
4636;SDS011;2331;48.806;9.140;2023-08-20T05:47:28;13.80;;;9.80;;
4636;SDS011;2331;48.806;9.140;2023-08-20T05:49:55;11.67;;;9.17;;
4636;SDS011;2331;48.806;9.140;2023-08-20T05:52:22;12.60;;;9.27;;
4636;SDS011;2331;48.806;9.140;2023-08-20T05:54:49;17.93;;;10.07;;
4636;SDS011;2331;48.806;9.140;2023-08-20T05:57:15;13.73;;;10.90;;
4636;SDS011;2331;48.806;9.140;2023-08-20T05:59:42;12.90;;;9.13;;
4636;SDS011;2331;48.806;9.140;2023-08-20T06:02:09;12.80;;;9.27;;
4636;SDS011;2331;48.806;9.140;2023-08-20T06:04:37;14.60;;;9.40;;
4636;SDS011;2331;48.806;9.140;2023-08-20T06:07:04;13.10;;;9.10;;
4636;SDS011;2331;48.806;9.140;2023-08-20T06:09:30;11.80;;;9.20;;
4636;SDS011;2331;48.806;9.140;2023-08-20T06:11:57;17.27;;;9.77;;
4636;SDS011;2331;48.806;9.140;2023-08-20T06:14:24;15.07;;;9.53;;
4636;SDS011;2331;48.806;9.140;2023-08-20T06:16:51;14.43;;;9.60;;
4636;SDS011;2331;48.806;9.140;2023-08-20T06:19:17;18.37;;;9.00;;
4636;SDS011;2331;48.806;9.140;2023-08-20T06:21:45;16.23;;;9.63;;
4636;SDS011;2331;48.806;9.140;2023-08-20T06:24:12;15.90;;;10.53;;
4636;SDS011;2331;48.806;9.140;2023-08-20T06:26:39;17.57;;;9.70;;
4636;SDS011;2331;48.806;9.140;2023-08-20T06:29:05;12.03;;;9.20;;
4636;SDS011;2331;48.806;9.140;2023-08-20T06:31:32;14.60;;;10.00;;
4636;SDS011;2331;48.806;9.140;2023-08-20T06:33:59;13.77;;;10.57;;
4636;SDS011;2331;48.806;9.140;2023-08-20T06:36:26;15.70;;;9.60;;
4636;SDS011;2331;48.806;9.140;2023-08-20T06:38:54;17.47;;;11.83;;
4636;SDS011;2331;48.806;9.140;2023-08-20T06:41:22;18.40;;;11.60;;
4636;SDS011;2331;48.806;9.140;2023-08-20T06:43:49;19.33;;;12.57;;
4636;SDS011;2331;48.806;9.140;2023-08-20T06:46:16;19.13;;;10.00;;
4636;SDS011;2331;48.806;9.140;2023-08-20T06:48:42;16.10;;;10.83;;
4636;SDS011;2331;48.806;9.140;2023-08-20T06:51:12;14.63;;;9.07;;
4636;SDS011;2331;48.806;9.140;2023-08-20T06:53:40;13.83;;;10.17;;
4636;SDS011;2331;48.806;9.140;2023-08-20T06:56:08;18.30;;;11.87;;
4636;SDS011;2331;48.806;9.140;2023-08-20T06:58:36;17.40;;;11.93;;
4636;SDS011;2331;48.806;9.140;2023-08-20T07:01:03;23.70;;;10.83;;
4636;SDS011;2331;48.806;9.140;2023-08-20T07:03:33;15.80;;;11.37;;
4636;SDS011;2331;48.806;9.140;2023-08-20T07:06:00;14.47;;;10.87;;
4636;SDS011;2331;48.806;9.140;2023-08-20T07:08:27;15.70;;;11.53;;
4636;SDS011;2331;48.806;9.140;2023-08-20T07:10:53;14.90;;;12.00;;
4636;SDS011;2331;48.806;9.140;2023-08-20T07:13:22;16.97;;;10.93;;
4636;SDS011;2331;48.806;9.140;2023-08-20T07:15:49;15.03;;;11.20;;
4636;SDS011;2331;48.806;9.140;2023-08-20T07:18:16;13.73;;;10.10;;
4636;SDS011;2331;48.806;9.140;2023-08-20T07:20:43;16.60;;;11.30;;
4636;SDS011;2331;48.806;9.140;2023-08-20T07:23:10;18.13;;;10.67;;
4636;SDS011;2331;48.806;9.140;2023-08-20T07:25:37;15.47;;;10.73;;
4636;SDS011;2331;48.806;9.140;2023-08-20T07:28:05;15.27;;;11.10;;
4636;SDS011;2331;48.806;9.140;2023-08-20T07:30:33;14.80;;;11.60;;
4636;SDS011;2331;48.806;9.140;2023-08-20T07:33:00;13.80;;;11.13;;
4636;SDS011;2331;48.806;9.140;2023-08-20T07:35:27;13.47;;;11.13;;
4636;SDS011;2331;48.806;9.140;2023-08-20T07:37:54;17.77;;;10.97;;
4636;SDS011;2331;48.806;9.140;2023-08-20T07:40:21;13.67;;;10.50;;
4636;SDS011;2331;48.806;9.140;2023-08-20T07:42:48;14.80;;;10.60;;
4636;SDS011;2331;48.806;9.140;2023-08-20T07:45:15;17.93;;;11.67;;
4636;SDS011;2331;48.806;9.140;2023-08-20T07:47:44;24.20;;;11.30;;
4636;SDS011;2331;48.806;9.140;2023-08-20T07:50:11;16.40;;;11.23;;
4636;SDS011;2331;48.806;9.140;2023-08-20T07:52:37;13.83;;;10.97;;
4636;SDS011;2331;48.806;9.140;2023-08-20T07:55:05;15.70;;;11.00;;
4636;SDS011;2331;48.806;9.140;2023-08-20T07:57:32;15.80;;;11.10;;
4636;SDS011;2331;48.806;9.140;2023-08-20T07:59:59;14.90;;;11.00;;
4636;SDS011;2331;48.806;9.140;2023-08-20T08:02:29;15.10;;;10.43;;
4636;SDS011;2331;48.806;9.140;2023-08-20T08:04:57;16.10;;;10.93;;
4636;SDS011;2331;48.806;9.140;2023-08-20T08:07:23;15.63;;;11.10;;
4636;SDS011;2331;48.806;9.140;2023-08-20T08:09:50;14.10;;;11.10;;
4636;SDS011;2331;48.806;9.140;2023-08-20T08:12:17;14.23;;;10.30;;
4636;SDS011;2331;48.806;9.140;2023-08-20T08:14:44;17.37;;;10.57;;
4636;SDS011;2331;48.806;9.140;2023-08-20T08:17:10;16.30;;;10.83;;
4636;SDS011;2331;48.806;9.140;2023-08-20T08:19:37;19.00;;;10.93;;
4636;SDS011;2331;48.806;9.140;2023-08-20T08:22:05;15.33;;;11.23;;
4636;SDS011;2331;48.806;9.140;2023-08-20T08:24:32;19.20;;;12.33;;
4636;SDS011;2331;48.806;9.140;2023-08-20T08:26:59;14.30;;;11.20;;
4636;SDS011;2331;48.806;9.140;2023-08-20T08:29:25;15.83;;;12.00;;
4636;SDS011;2331;48.806;9.140;2023-08-20T08:31:52;13.23;;;10.77;;
4636;SDS011;2331;48.806;9.140;2023-08-20T08:34:19;15.07;;;10.77;;
4636;SDS011;2331;48.806;9.140;2023-08-20T08:36:46;14.77;;;10.43;;
4636;SDS011;2331;48.806;9.140;2023-08-20T08:39:14;21.13;;;12.20;;
4636;SDS011;2331;48.806;9.140;2023-08-20T08:41:41;14.80;;;10.70;;
4636;SDS011;2331;48.806;9.140;2023-08-20T08:44:09;15.73;;;11.30;;
4636;SDS011;2331;48.806;9.140;2023-08-20T08:46:37;12.90;;;10.30;;
4636;SDS011;2331;48.806;9.140;2023-08-20T08:49:05;13.47;;;10.03;;
4636;SDS011;2331;48.806;9.140;2023-08-20T08:51:33;14.73;;;10.10;;
4636;SDS011;2331;48.806;9.140;2023-08-20T08:54:02;14.03;;;10.70;;
4636;SDS011;2331;48.806;9.140;2023-08-20T08:56:31;13.90;;;10.30;;
4636;SDS011;2331;48.806;9.140;2023-08-20T08:58:58;15.60;;;10.30;;
4636;SDS011;2331;48.806;9.140;2023-08-20T09:01:24;16.60;;;10.13;;
4636;SDS011;2331;48.806;9.140;2023-08-20T09:03:51;13.57;;;9.73;;
4636;SDS011;2331;48.806;9.140;2023-08-20T09:06:18;17.93;;;9.50;;
4636;SDS011;2331;48.806;9.140;2023-08-20T09:08:45;14.27;;;10.20;;
4636;SDS011;2331;48.806;9.140;2023-08-20T09:11:12;15.93;;;10.53;;
4636;SDS011;2331;48.806;9.140;2023-08-20T09:13:41;15.50;;;10.83;;
4636;SDS011;2331;48.806;9.140;2023-08-20T09:16:09;15.00;;;10.57;;
4636;SDS011;2331;48.806;9.140;2023-08-20T09:18:40;16.63;;;10.50;;
4636;SDS011;2331;48.806;9.140;2023-08-20T09:21:07;15.80;;;10.60;;
4636;SDS011;2331;48.806;9.140;2023-08-20T09:23:35;11.33;;;9.17;;
4636;SDS011;2331;48.806;9.140;2023-08-20T09:26:02;15.10;;;10.30;;
4636;SDS011;2331;48.806;9.140;2023-08-20T09:28:30;15.63;;;9.80;;
4636;SDS011;2331;48.806;9.140;2023-08-20T09:31:09;14.83;;;9.73;;
4636;SDS011;2331;48.806;9.140;2023-08-20T09:33:36;12.20;;;9.27;;
4636;SDS011;2331;48.806;9.140;2023-08-20T09:36:03;17.90;;;9.83;;
4636;SDS011;2331;48.806;9.140;2023-08-20T09:38:30;11.50;;;9.50;;
4636;SDS011;2331;48.806;9.140;2023-08-20T09:41:03;15.50;;;8.77;;
4636;SDS011;2331;48.806;9.140;2023-08-20T09:43:34;14.03;;;9.33;;
4636;SDS011;2331;48.806;9.140;2023-08-20T09:46:06;11.20;;;8.67;;
4636;SDS011;2331;48.806;9.140;2023-08-20T09:48:36;16.43;;;9.70;;
4636;SDS011;2331;48.806;9.140;2023-08-20T09:51:09;17.60;;;9.60;;
4636;SDS011;2331;48.806;9.140;2023-08-20T09:53:39;12.30;;;9.30;;
4636;SDS011;2331;48.806;9.140;2023-08-20T09:56:14;13.50;;;9.20;;
4636;SDS011;2331;48.806;9.140;2023-08-20T09:58:46;12.13;;;8.77;;
4636;SDS011;2331;48.806;9.140;2023-08-20T10:01:17;13.20;;;8.73;;
4636;SDS011;2331;48.806;9.140;2023-08-20T10:03:44;12.70;;;8.37;;
4636;SDS011;2331;48.806;9.140;2023-08-20T10:06:11;12.80;;;8.80;;
4636;SDS011;2331;48.806;9.140;2023-08-20T10:08:38;13.10;;;8.40;;
4636;SDS011;2331;48.806;9.140;2023-08-20T10:11:05;12.90;;;8.67;;
4636;SDS011;2331;48.806;9.140;2023-08-20T10:13:32;11.83;;;8.60;;
4636;SDS011;2331;48.806;9.140;2023-08-20T10:15:59;11.83;;;9.00;;
4636;SDS011;2331;48.806;9.140;2023-08-20T10:18:27;10.50;;;8.40;;
4636;SDS011;2331;48.806;9.140;2023-08-20T10:20:54;10.60;;;7.93;;
4636;SDS011;2331;48.806;9.140;2023-08-20T10:23:23;12.50;;;8.80;;
4636;SDS011;2331;48.806;9.140;2023-08-20T10:25:51;13.50;;;8.10;;
4636;SDS011;2331;48.806;9.140;2023-08-20T10:28:20;14.73;;;7.03;;
4636;SDS011;2331;48.806;9.140;2023-08-20T10:31:03;10.77;;;6.93;;
4636;SDS011;2331;48.806;9.140;2023-08-20T10:33:33;11.13;;;7.27;;
4636;SDS011;2331;48.806;9.140;2023-08-20T10:36:06;10.40;;;7.13;;
4636;SDS011;2331;48.806;9.140;2023-08-20T10:38:35;10.40;;;7.10;;
4636;SDS011;2331;48.806;9.140;2023-08-20T10:41:05;9.20;;;7.20;;
4636;SDS011;2331;48.806;9.140;2023-08-20T10:43:33;14.27;;;8.00;;
4636;SDS011;2331;48.806;9.140;2023-08-20T10:48:48;12.43;;;7.50;;
4636;SDS011;2331;48.806;9.140;2023-08-20T10:51:16;13.10;;;7.90;;
4636;SDS011;2331;48.806;9.140;2023-08-20T10:53:48;9.73;;;7.30;;
4636;SDS011;2331;48.806;9.140;2023-08-20T10:56:39;11.00;;;7.60;;
4636;SDS011;2331;48.806;9.140;2023-08-20T10:59:08;13.60;;;7.60;;
4636;SDS011;2331;48.806;9.140;2023-08-20T11:01:35;13.53;;;7.60;;
4636;SDS011;2331;48.806;9.140;2023-08-20T11:04:05;11.03;;;7.43;;
4636;SDS011;2331;48.806;9.140;2023-08-20T11:06:32;11.23;;;6.80;;
4636;SDS011;2331;48.806;9.140;2023-08-20T11:08:59;9.20;;;7.13;;
4636;SDS011;2331;48.806;9.140;2023-08-20T11:11:28;8.93;;;6.80;;
4636;SDS011;2331;48.806;9.140;2023-08-20T11:13:56;13.70;;;6.60;;
4636;SDS011;2331;48.806;9.140;2023-08-20T11:16:23;11.53;;;6.53;;
4636;SDS011;2331;48.806;9.140;2023-08-20T11:18:51;15.33;;;6.60;;
4636;SDS011;2331;48.806;9.140;2023-08-20T11:21:20;9.77;;;7.37;;
4636;SDS011;2331;48.806;9.140;2023-08-20T11:23:47;13.33;;;7.37;;
4636;SDS011;2331;48.806;9.140;2023-08-20T11:26:14;11.80;;;6.27;;
4636;SDS011;2331;48.806;9.140;2023-08-20T11:28:44;12.37;;;7.13;;
4636;SDS011;2331;48.806;9.140;2023-08-20T11:31:11;8.23;;;6.90;;
4636;SDS011;2331;48.806;9.140;2023-08-20T11:33:38;11.30;;;7.50;;
4636;SDS011;2331;48.806;9.140;2023-08-20T11:36:05;10.60;;;6.67;;
4636;SDS011;2331;48.806;9.140;2023-08-20T11:38:34;9.17;;;6.87;;
4636;SDS011;2331;48.806;9.140;2023-08-20T11:41:00;10.33;;;6.50;;
4636;SDS011;2331;48.806;9.140;2023-08-20T11:43:27;12.80;;;6.80;;
4636;SDS011;2331;48.806;9.140;2023-08-20T11:45:54;8.63;;;6.60;;
4636;SDS011;2331;48.806;9.140;2023-08-20T11:48:21;12.93;;;7.33;;
4636;SDS011;2331;48.806;9.140;2023-08-20T11:50:49;10.77;;;6.50;;
4636;SDS011;2331;48.806;9.140;2023-08-20T11:53:20;26.53;;;6.67;;
4636;SDS011;2331;48.806;9.140;2023-08-20T11:55:49;9.20;;;6.53;;
4636;SDS011;2331;48.806;9.140;2023-08-20T11:58:18;9.10;;;6.30;;
4636;SDS011;2331;48.806;9.140;2023-08-20T12:00:48;10.50;;;6.93;;
4636;SDS011;2331;48.806;9.140;2023-08-20T12:03:17;9.63;;;6.77;;
4636;SDS011;2331;48.806;9.140;2023-08-20T12:05:44;12.23;;;6.50;;
4636;SDS011;2331;48.806;9.140;2023-08-20T12:08:14;10.67;;;6.50;;
4636;SDS011;2331;48.806;9.140;2023-08-20T12:10:41;11.60;;;6.57;;
4636;SDS011;2331;48.806;9.140;2023-08-20T12:13:10;10.10;;;6.87;;
4636;SDS011;2331;48.806;9.140;2023-08-20T12:15:37;9.13;;;6.07;;
4636;SDS011;2331;48.806;9.140;2023-08-20T12:18:04;8.83;;;6.10;;
4636;SDS011;2331;48.806;9.140;2023-08-20T12:20:32;9.03;;;6.73;;
4636;SDS011;2331;48.806;9.140;2023-08-20T12:23:00;9.40;;;6.70;;
4636;SDS011;2331;48.806;9.140;2023-08-20T12:25:29;10.30;;;6.70;;
4636;SDS011;2331;48.806;9.140;2023-08-20T12:28:00;9.30;;;5.73;;
4636;SDS011;2331;48.806;9.140;2023-08-20T12:30:29;10.50;;;6.60;;
4636;SDS011;2331;48.806;9.140;2023-08-20T12:32:56;9.77;;;6.10;;
4636;SDS011;2331;48.806;9.140;2023-08-20T12:35:23;12.10;;;5.83;;
4636;SDS011;2331;48.806;9.140;2023-08-20T12:37:50;9.53;;;5.93;;
4636;SDS011;2331;48.806;9.140;2023-08-20T12:40:16;8.03;;;5.77;;
4636;SDS011;2331;48.806;9.140;2023-08-20T12:42:43;10.07;;;5.87;;
4636;SDS011;2331;48.806;9.140;2023-08-20T12:45:10;10.63;;;6.50;;
4636;SDS011;2331;48.806;9.140;2023-08-20T12:47:39;9.00;;;5.90;;
4636;SDS011;2331;48.806;9.140;2023-08-20T12:50:07;10.33;;;6.20;;
4636;SDS011;2331;48.806;9.140;2023-08-20T12:52:35;14.00;;;6.23;;
4636;SDS011;2331;48.806;9.140;2023-08-20T12:55:02;8.87;;;6.63;;
4636;SDS011;2331;48.806;9.140;2023-08-20T12:57:29;8.00;;;6.20;;
4636;SDS011;2331;48.806;9.140;2023-08-20T12:59:56;9.57;;;6.13;;
4636;SDS011;2331;48.806;9.140;2023-08-20T13:02:24;10.50;;;6.73;;
4636;SDS011;2331;48.806;9.140;2023-08-20T13:04:53;12.70;;;6.60;;
4636;SDS011;2331;48.806;9.140;2023-08-20T13:07:20;16.23;;;7.07;;
4636;SDS011;2331;48.806;9.140;2023-08-20T13:09:47;7.70;;;6.50;;
4636;SDS011;2331;48.806;9.140;2023-08-20T13:12:14;10.77;;;6.53;;
4636;SDS011;2331;48.806;9.140;2023-08-20T13:14:45;11.10;;;7.27;;
4636;SDS011;2331;48.806;9.140;2023-08-20T13:17:12;12.73;;;6.67;;
4636;SDS011;2331;48.806;9.140;2023-08-20T13:19:39;8.73;;;5.83;;
4636;SDS011;2331;48.806;9.140;2023-08-20T13:22:08;8.80;;;6.80;;
4636;SDS011;2331;48.806;9.140;2023-08-20T13:24:35;9.63;;;7.37;;
4636;SDS011;2331;48.806;9.140;2023-08-20T13:27:02;12.97;;;6.67;;
4636;SDS011;2331;48.806;9.140;2023-08-20T13:29:29;10.87;;;6.93;;
4636;SDS011;2331;48.806;9.140;2023-08-20T13:31:55;9.03;;;5.93;;
4636;SDS011;2331;48.806;9.140;2023-08-20T13:34:22;10.20;;;6.20;;
4636;SDS011;2331;48.806;9.140;2023-08-20T13:36:49;10.83;;;6.57;;
4636;SDS011;2331;48.806;9.140;2023-08-20T13:39:17;10.33;;;7.00;;
4636;SDS011;2331;48.806;9.140;2023-08-20T13:41:46;12.73;;;6.63;;
4636;SDS011;2331;48.806;9.140;2023-08-20T13:44:15;12.00;;;6.50;;
4636;SDS011;2331;48.806;9.140;2023-08-20T13:46:42;12.73;;;6.63;;
4636;SDS011;2331;48.806;9.140;2023-08-20T13:49:09;10.20;;;5.90;;
4636;SDS011;2331;48.806;9.140;2023-08-20T13:51:36;9.57;;;6.40;;
4636;SDS011;2331;48.806;9.140;2023-08-20T13:54:03;10.13;;;6.47;;
4636;SDS011;2331;48.806;9.140;2023-08-20T13:56:32;9.87;;;6.10;;
4636;SDS011;2331;48.806;9.140;2023-08-20T13:58:58;10.73;;;6.80;;
4636;SDS011;2331;48.806;9.140;2023-08-20T14:01:25;10.07;;;5.70;;
4636;SDS011;2331;48.806;9.140;2023-08-20T14:03:52;10.77;;;6.23;;
4636;SDS011;2331;48.806;9.140;2023-08-20T14:06:19;11.00;;;6.40;;
4636;SDS011;2331;48.806;9.140;2023-08-20T14:08:46;7.27;;;5.50;;
4636;SDS011;2331;48.806;9.140;2023-08-20T14:11:13;13.13;;;6.83;;
4636;SDS011;2331;48.806;9.140;2023-08-20T14:13:41;9.00;;;5.90;;
4636;SDS011;2331;48.806;9.140;2023-08-20T14:16:08;9.33;;;5.63;;
4636;SDS011;2331;48.806;9.140;2023-08-20T14:18:35;8.07;;;5.63;;
4636;SDS011;2331;48.806;9.140;2023-08-20T14:21:02;10.73;;;5.30;;
4636;SDS011;2331;48.806;9.140;2023-08-20T14:23:29;9.53;;;5.47;;
4636;SDS011;2331;48.806;9.140;2023-08-20T14:25:55;9.97;;;5.40;;
4636;SDS011;2331;48.806;9.140;2023-08-20T14:28:22;8.43;;;5.77;;
4636;SDS011;2331;48.806;9.140;2023-08-20T14:30:51;9.60;;;6.10;;
4636;SDS011;2331;48.806;9.140;2023-08-20T14:33:19;12.80;;;5.57;;
4636;SDS011;2331;48.806;9.140;2023-08-20T14:35:46;11.00;;;5.27;;
4636;SDS011;2331;48.806;9.140;2023-08-20T14:38:12;8.80;;;5.50;;
4636;SDS011;2331;48.806;9.140;2023-08-20T14:40:39;8.70;;;5.47;;
4636;SDS011;2331;48.806;9.140;2023-08-20T14:43:06;12.23;;;5.70;;
4636;SDS011;2331;48.806;9.140;2023-08-20T14:45:33;9.00;;;5.57;;
4636;SDS011;2331;48.806;9.140;2023-08-20T14:48:01;8.80;;;5.70;;
4636;SDS011;2331;48.806;9.140;2023-08-20T14:50:29;10.00;;;5.53;;
4636;SDS011;2331;48.806;9.140;2023-08-20T14:52:55;9.30;;;5.77;;
4636;SDS011;2331;48.806;9.140;2023-08-20T14:55:22;8.57;;;5.10;;
4636;SDS011;2331;48.806;9.140;2023-08-20T14:57:49;9.70;;;6.43;;
4636;SDS011;2331;48.806;9.140;2023-08-20T15:00:15;13.37;;;6.50;;
4636;SDS011;2331;48.806;9.140;2023-08-20T15:02:43;15.57;;;5.63;;
4636;SDS011;2331;48.806;9.140;2023-08-20T15:05:12;10.93;;;6.20;;
4636;SDS011;2331;48.806;9.140;2023-08-20T15:07:39;10.60;;;5.60;;
4636;SDS011;2331;48.806;9.140;2023-08-20T15:10:06;10.40;;;4.90;;